createdAt,value
2017-05-09T00:01:15.782Z,21.61
2017-05-09T00:02:15.275Z,21.67
2017-05-09T00:03:15.209Z,21.7
2017-05-09T00:04:15.149Z,21.61
2017-05-09T00:05:15.082Z,21.7
2017-05-09T00:06:15.425Z,21.72
2017-05-09T00:07:15.271Z,21.66
2017-05-09T00:08:15.201Z,21.66
2017-05-09T00:09:15.142Z,21.66
2017-05-09T00:10:15.075Z,21.72
2017-05-09T00:11:15.012Z,21.69
2017-05-09T00:12:14.637Z,21.62
2017-05-09T00:13:14.889Z,21.61
2017-05-09T00:14:14.824Z,21.55
2017-05-09T00:15:14.762Z,21.64
2017-05-09T00:16:15.070Z,21.55
2017-05-09T00:17:14.635Z,21.66
2017-05-09T00:18:14.566Z,21.64
2017-05-09T00:19:14.511Z,21.57
2017-05-09T00:20:14.448Z,21.69
2017-05-09T00:21:14.378Z,21.64
2017-05-09T00:22:14.003Z,21.64
2017-05-09T00:23:14.255Z,21.61
2017-05-09T00:24:14.569Z,21.58
2017-05-09T00:25:14.495Z,21.61
2017-05-09T00:26:14.059Z,21.61
2017-05-09T00:27:13.994Z,21.61
2017-05-09T00:28:13.937Z,21.62
2017-05-09T00:29:14.254Z,21.64
2017-05-09T00:30:13.678Z,21.52
2017-05-09T00:31:13.744Z,21.57
2017-05-09T00:32:13.683Z,21.64
2017-05-09T00:33:13.615Z,21.58
2017-05-09T00:34:13.549Z,21.6
2017-05-09T00:35:13.488Z,21.64
2017-05-09T00:36:13.427Z,21.62
2017-05-09T00:37:13.423Z,21.57
2017-05-09T00:38:13.298Z,21.58
2017-05-09T00:39:12.928Z,21.61
2017-05-09T00:40:13.180Z,21.64
2017-05-09T00:41:13.104Z,21.61
2017-05-09T00:42:12.731Z,21.67
2017-05-09T00:43:12.674Z,21.62
2017-05-09T00:44:12.608Z,21.55
2017-05-09T00:45:12.915Z,21.6
2017-05-09T00:46:12.480Z,21.55
2017-05-09T00:47:12.107Z,21.6
2017-05-09T00:48:12.357Z,21.61
2017-05-09T00:49:12.602Z,21.57
2017-05-09T00:50:12.539Z,21.6
2017-05-09T00:51:11.886Z,21.6
2017-05-09T00:52:12.099Z,21.58
2017-05-09T00:53:12.038Z,21.58
2017-05-09T00:54:12.292Z,21.62
2017-05-09T00:55:12.224Z,21.62
2017-05-09T00:56:12.523Z,21.54
2017-05-09T00:57:12.091Z,21.55
2017-05-09T00:58:11.717Z,21.57
2017-05-09T00:59:11.965Z,21.57
2017-05-09T01:00:11.903Z,21.67
2017-05-09T01:01:11.842Z,21.57
2017-05-09T01:02:11.769Z,21.51
2017-05-09T01:03:11.708Z,21.57
2017-05-09T01:04:11.645Z,21.61
2017-05-09T01:05:11.585Z,21.66
2017-05-09T01:06:11.549Z,21.62
2017-05-09T01:07:11.455Z,21.61
2017-05-09T01:08:11.394Z,21.62
2017-05-09T01:09:11.331Z,21.61
2017-05-09T01:10:10.951Z,21.61
2017-05-09T01:11:11.201Z,21.62
2017-05-09T01:12:11.512Z,21.57
2017-05-09T01:13:11.069Z,21.62
2017-05-09T01:14:11.010Z,21.61
2017-05-09T01:15:10.947Z,21.61
2017-05-09T01:16:10.878Z,21.61
2017-05-09T01:17:10.815Z,21.61
2017-05-09T01:18:10.446Z,21.58
2017-05-09T01:19:10.695Z,21.64
2017-05-09T01:20:10.321Z,21.57
2017-05-09T01:21:10.567Z,21.58
2017-05-09T01:22:10.193Z,21.62
2017-05-09T01:23:10.129Z,21.57
2017-05-09T01:24:10.386Z,21.58
2017-05-09T01:25:10.312Z,21.62
2017-05-09T01:26:10.248Z,21.64
2017-05-09T01:27:10.186Z,21.62
2017-05-09T01:28:09.818Z,21.62
2017-05-09T01:29:10.060Z,21.58
2017-05-09T01:30:09.993Z,21.57
2017-05-09T01:31:09.636Z,21.62
2017-05-09T01:32:09.865Z,21.52
2017-05-09T01:33:09.563Z,21.66
2017-05-09T01:34:09.743Z,21.58
2017-05-09T01:35:09.364Z,21.6
2017-05-09T01:36:09.614Z,21.58
2017-05-09T01:37:09.555Z,21.62
2017-05-09T01:38:09.177Z,21.54
2017-05-09T01:39:09.423Z,21.61
2017-05-09T01:40:09.359Z,21.58
2017-05-09T01:41:09.297Z,21.62
2017-05-09T01:42:09.287Z,21.64
2017-05-09T01:43:09.171Z,21.62
2017-05-09T01:44:09.110Z,21.64
2017-05-09T01:45:09.040Z,21.55
2017-05-09T01:46:08.986Z,21.61
2017-05-09T01:47:08.915Z,21.66
2017-05-09T01:48:08.852Z,21.62
2017-05-09T01:49:09.539Z,21.64
2017-05-09T01:50:08.756Z,21.62
2017-05-09T01:51:08.662Z,21.61
2017-05-09T01:52:08.597Z,21.64
2017-05-09T01:53:08.906Z,21.62
2017-05-09T01:54:08.472Z,21.6
2017-05-09T01:55:08.098Z,21.55
2017-05-09T01:56:08.343Z,21.62
2017-05-09T01:57:08.286Z,21.54
2017-05-09T01:58:08.221Z,21.6
2017-05-09T01:59:07.854Z,21.6
2017-05-09T02:00:08.091Z,21.64
2017-05-09T02:01:08.027Z,21.62
2017-05-09T02:02:07.966Z,21.6
2017-05-09T02:03:07.897Z,21.61
2017-05-09T02:04:07.835Z,21.62
2017-05-09T02:05:07.468Z,21.64
2017-05-09T02:06:07.710Z,21.62
2017-05-09T02:07:07.643Z,21.62
2017-05-09T02:08:08.342Z,21.62
2017-05-09T02:09:07.516Z,21.6
2017-05-09T02:10:07.461Z,21.61
2017-05-09T02:11:07.761Z,21.57
2017-05-09T02:12:07.013Z,21.6
2017-05-09T02:13:07.263Z,21.58
2017-05-09T02:14:07.200Z,21.57
2017-05-09T02:15:07.138Z,21.55
2017-05-09T02:16:07.079Z,21.61
2017-05-09T02:17:07.013Z,21.58
2017-05-09T02:18:06.951Z,21.58
2017-05-09T02:19:06.880Z,21.58
2017-05-09T02:20:06.817Z,21.46
2017-05-09T02:21:06.754Z,21.54
2017-05-09T02:22:06.693Z,21.48
2017-05-09T02:23:06.630Z,21.55
2017-05-09T02:24:06.569Z,21.48
2017-05-09T02:25:06.656Z,21.58
2017-05-09T02:26:06.439Z,21.57
2017-05-09T02:27:06.377Z,21.52
2017-05-09T02:28:06.314Z,21.57
2017-05-09T02:29:06.247Z,21.5
2017-05-09T02:30:06.189Z,21.61
2017-05-09T02:31:06.158Z,21.48
2017-05-09T02:32:06.054Z,21.48
2017-05-09T02:33:05.996Z,21.5
2017-05-09T02:34:05.930Z,21.5
2017-05-09T02:35:05.557Z,21.58
2017-05-09T02:36:05.497Z,21.51
2017-05-09T02:37:05.740Z,21.48
2017-05-09T02:38:06.047Z,21.46
2017-05-09T02:39:05.613Z,21.51
2017-05-09T02:40:05.554Z,21.51
2017-05-09T02:41:05.490Z,21.5
2017-05-09T02:42:05.417Z,21.45
2017-05-09T02:43:05.356Z,21.5
2017-05-09T02:44:05.295Z,21.5
2017-05-09T02:45:05.230Z,21.46
2017-05-09T02:46:05.169Z,21.55
2017-05-09T02:47:05.106Z,21.55
2017-05-09T02:48:05.040Z,21.55
2017-05-09T02:49:04.976Z,21.45
2017-05-09T02:50:04.921Z,21.57
2017-05-09T02:51:04.848Z,21.46
2017-05-09T02:52:04.784Z,21.5
2017-05-09T02:53:04.728Z,21.5
2017-05-09T02:54:05.043Z,21.51
2017-05-09T02:55:04.597Z,21.46
2017-05-09T02:56:04.902Z,21.46
2017-05-09T02:57:04.837Z,21.51
2017-05-09T02:58:04.400Z,21.52
2017-05-09T02:59:04.351Z,21.43
2017-05-09T03:00:04.374Z,21.5
2017-05-09T03:01:04.215Z,21.48
2017-05-09T03:02:04.151Z,21.51
2017-05-09T03:03:04.083Z,21.48
2017-05-09T03:04:03.715Z,21.46
2017-05-09T03:05:03.964Z,21.46
2017-05-09T03:06:03.898Z,21.46
2017-05-09T03:07:03.851Z,21.55
2017-05-09T03:08:03.788Z,21.58
2017-05-09T03:09:03.720Z,21.55
2017-05-09T03:10:03.642Z,21.57
2017-05-09T03:11:03.579Z,21.54
2017-05-09T03:12:03.512Z,21.58
2017-05-09T03:13:03.453Z,21.46
2017-05-09T03:14:03.389Z,21.52
2017-05-09T03:15:03.323Z,21.57
2017-05-09T03:16:03.258Z,21.5
2017-05-09T03:17:03.201Z,21.51
2017-05-09T03:18:03.131Z,21.48
2017-05-09T03:19:03.077Z,21.48
2017-05-09T03:20:03.007Z,21.45
2017-05-09T03:21:02.941Z,21.52
2017-05-09T03:22:02.878Z,21.48
2017-05-09T03:23:02.821Z,21.46
2017-05-09T03:24:02.752Z,21.52
2017-05-09T03:25:02.693Z,21.51
2017-05-09T03:26:02.626Z,21.51
2017-05-09T03:27:02.561Z,21.57
2017-05-09T03:28:02.497Z,21.57
2017-05-09T03:29:02.436Z,21.54
2017-05-09T03:30:02.372Z,21.51
2017-05-09T03:31:02.306Z,21.51
2017-05-09T03:32:02.243Z,21.51
2017-05-09T03:33:02.181Z,21.5
2017-05-09T03:34:01.843Z,21.48
2017-05-09T03:35:02.058Z,21.51
2017-05-09T03:36:01.995Z,21.45
2017-05-09T03:37:01.928Z,21.57
2017-05-09T03:38:01.864Z,21.52
2017-05-09T03:39:01.490Z,21.54
2017-05-09T03:40:01.738Z,21.52
2017-05-09T03:41:01.670Z,21.54
2017-05-09T03:42:01.609Z,21.45
2017-05-09T03:43:01.542Z,21.5
2017-05-09T03:44:01.475Z,21.54
2017-05-09T03:45:01.423Z,21.45
2017-05-09T03:46:01.352Z,21.51
2017-05-09T03:47:01.288Z,21.46
2017-05-09T03:48:01.237Z,21.51
2017-05-09T03:49:01.163Z,21.45
2017-05-09T03:50:01.100Z,21.48
2017-05-09T03:51:01.039Z,21.48
2017-05-09T03:52:00.968Z,21.5
2017-05-09T03:53:00.910Z,21.45
2017-05-09T03:54:00.848Z,21.48
2017-05-09T03:55:00.786Z,21.46
2017-05-09T03:56:00.717Z,21.48
2017-05-09T03:57:00.654Z,21.46
2017-05-09T03:58:00.598Z,21.43
2017-05-09T03:59:00.893Z,21.48
2017-05-09T04:00:00.829Z,21.46
2017-05-09T04:01:00.403Z,21.43
2017-05-09T04:02:00.032Z,21.4
2017-05-09T04:03:00.271Z,21.48
2017-05-09T04:04:00.209Z,21.48
2017-05-09T04:05:00.141Z,21.42
2017-05-09T04:06:00.077Z,21.37
2017-05-09T04:07:00.012Z,21.36
2017-05-09T04:07:59.955Z,21.32
2017-05-09T04:08:59.894Z,21.33
2017-05-09T04:09:59.830Z,21.27
2017-05-09T04:11:00.129Z,21.27
2017-05-09T04:11:59.699Z,21.35
2017-05-09T04:12:59.637Z,21.25
2017-05-09T04:13:59.572Z,21.24
2017-05-09T04:14:59.566Z,21.21
2017-05-09T04:15:59.440Z,21.21
2017-05-09T04:16:59.376Z,21.25
2017-05-09T04:17:59.323Z,21.21
2017-05-09T04:18:59.248Z,21.2
2017-05-09T04:19:59.187Z,21.2
2017-05-09T04:20:59.116Z,21.11
2017-05-09T04:21:59.058Z,21.11
2017-05-09T04:22:58.996Z,21.09
2017-05-09T04:23:58.927Z,21.17
2017-05-09T04:24:58.869Z,21.11
2017-05-09T04:25:58.832Z,21.18
2017-05-09T04:26:58.745Z,21.21
2017-05-09T04:27:58.671Z,21.18
2017-05-09T04:28:58.615Z,21.2
2017-05-09T04:29:58.543Z,21.2
2017-05-09T04:30:58.481Z,21.18
2017-05-09T04:31:58.455Z,21.18
2017-05-09T04:32:58.357Z,21.14
2017-05-09T04:33:58.293Z,21.07
2017-05-09T04:34:58.222Z,21.17
2017-05-09T04:35:58.161Z,21.14
2017-05-09T04:36:58.101Z,21.14
2017-05-09T04:37:58.036Z,21.17
2017-05-09T04:38:57.982Z,21.12
2017-05-09T04:39:57.941Z,21.14
2017-05-09T04:40:57.839Z,21.09
2017-05-09T04:41:57.772Z,21.12
2017-05-09T04:42:57.716Z,21.12
2017-05-09T04:43:57.651Z,21
2017-05-09T04:44:57.586Z,21.11
2017-05-09T04:45:57.220Z,21.03
2017-05-09T04:46:57.151Z,20.99
2017-05-09T04:47:57.398Z,21
2017-05-09T04:48:57.333Z,21.11
2017-05-09T04:49:57.265Z,21
2017-05-09T04:50:57.204Z,20.99
2017-05-09T04:51:57.134Z,21.07
2017-05-09T04:52:57.076Z,21.07
2017-05-09T04:53:57.009Z,21.11
2017-05-09T04:54:56.948Z,21.09
2017-05-09T04:55:56.882Z,21.09
2017-05-09T04:56:56.815Z,21.25
2017-05-09T04:57:56.446Z,21.24
2017-05-09T04:58:56.690Z,21.3
2017-05-09T04:59:56.628Z,21.2
2017-05-09T05:00:56.562Z,21.25
2017-05-09T05:01:56.496Z,21.18
2017-05-09T05:02:56.438Z,21.27
2017-05-09T05:03:56.383Z,21.21
2017-05-09T05:04:56.306Z,21.2
2017-05-09T05:05:56.271Z,21.14
2017-05-09T05:06:56.177Z,21.2
2017-05-09T05:07:56.114Z,21.12
2017-05-09T05:08:56.049Z,21.22
2017-05-09T05:09:56.357Z,21.25
2017-05-09T05:10:55.919Z,21.22
2017-05-09T05:11:55.857Z,21.3
2017-05-09T05:12:55.796Z,21.24
2017-05-09T05:13:55.733Z,21.3
2017-05-09T05:14:55.668Z,21.25
2017-05-09T05:15:55.748Z,21.25
2017-05-09T05:16:55.539Z,21.22
2017-05-09T05:17:55.474Z,21.32
2017-05-09T05:18:55.102Z,21.32
2017-05-09T05:19:55.346Z,21.27
2017-05-09T05:20:55.311Z,21.32
2017-05-09T05:21:55.222Z,21.27
2017-05-09T05:22:55.154Z,21.24
2017-05-09T05:23:55.089Z,21.25
2017-05-09T05:24:55.028Z,21.32
2017-05-09T05:25:54.960Z,21.3
2017-05-09T05:26:54.905Z,21.25
2017-05-09T05:27:54.839Z,21.29
2017-05-09T05:28:54.772Z,21.27
2017-05-09T05:29:54.702Z,21.21
2017-05-09T05:30:54.332Z,21.29
2017-05-09T05:31:54.578Z,21.22
2017-05-09T05:32:54.518Z,21.27
2017-05-09T05:33:54.141Z,21.3
2017-05-09T05:34:54.390Z,21.25
2017-05-09T05:35:54.321Z,21.24
2017-05-09T05:36:53.952Z,21.29
2017-05-09T05:37:53.888Z,21.33
2017-05-09T05:38:54.134Z,21.27
2017-05-09T05:39:54.068Z,21.29
2017-05-09T05:40:54.005Z,21.22
2017-05-09T05:41:53.942Z,21.29
2017-05-09T05:42:53.877Z,21.25
2017-05-09T05:43:53.811Z,21.3
2017-05-09T05:44:53.441Z,21.3
2017-05-09T05:45:53.686Z,21.3
2017-05-09T05:46:53.621Z,21.32
2017-05-09T05:47:53.556Z,21.32
2017-05-09T05:48:53.183Z,21.39
2017-05-09T05:49:53.433Z,21.3
2017-05-09T05:50:53.060Z,21.3
2017-05-09T05:51:53.299Z,21.3
2017-05-09T05:52:53.241Z,21.3
2017-05-09T05:53:52.868Z,21.27
2017-05-09T05:54:52.802Z,21.32
2017-05-09T05:55:53.047Z,21.29
2017-05-09T05:56:52.677Z,21.22
2017-05-09T05:57:52.925Z,21.25
2017-05-09T05:58:52.856Z,21.29
2017-05-09T05:59:52.793Z,21.29
2017-05-09T06:00:52.421Z,21.29
2017-05-09T06:01:52.667Z,21.24
2017-05-09T06:02:52.647Z,21.29
2017-05-09T06:03:52.233Z,21.22
2017-05-09T06:04:52.478Z,21.25
2017-05-09T06:05:52.438Z,21.27
2017-05-09T06:06:52.550Z,21.25
2017-05-09T06:07:52.285Z,21.29
2017-05-09T06:08:52.221Z,21.29
2017-05-09T06:09:51.845Z,21.27
2017-05-09T06:10:52.091Z,21.29
2017-05-09T06:11:52.027Z,21.24
2017-05-09T06:12:51.976Z,21.3
2017-05-09T06:13:51.902Z,21.25
2017-05-09T06:14:51.839Z,21.22
2017-05-09T06:15:51.859Z,21.27
2017-05-09T06:16:51.403Z,21.35
2017-05-09T06:17:51.642Z,21.27
2017-05-09T06:18:51.583Z,21.39
2017-05-09T06:19:51.520Z,21.3
2017-05-09T06:20:51.457Z,21.3
2017-05-09T06:21:51.396Z,21.3
2017-05-09T06:22:51.328Z,21.36
2017-05-09T06:23:51.265Z,21.27
2017-05-09T06:24:51.202Z,21.27
2017-05-09T06:25:51.134Z,21.29
2017-05-09T06:26:51.070Z,21.29
2017-05-09T06:27:51.008Z,21.32
2017-05-09T06:28:50.942Z,21.32
2017-05-09T06:29:50.569Z,21.3
2017-05-09T06:30:50.821Z,21.25
2017-05-09T06:31:50.754Z,21.24
2017-05-09T06:32:50.691Z,21.25
2017-05-09T06:33:50.673Z,21.3
2017-05-09T06:34:50.560Z,21.3
2017-05-09T06:35:50.494Z,21.35
2017-05-09T06:36:50.140Z,21.3
2017-05-09T06:37:50.739Z,21.36
2017-05-09T06:38:50.311Z,21.3
2017-05-09T06:39:50.239Z,21.27
2017-05-09T06:40:50.178Z,21.32
2017-05-09T06:41:49.805Z,21.27
2017-05-09T06:42:50.046Z,21.27
2017-05-09T06:43:49.983Z,21.35
2017-05-09T06:44:49.918Z,21.3
2017-05-09T06:45:49.859Z,21.3
2017-05-09T06:46:49.793Z,21.33
2017-05-09T06:47:49.736Z,21.25
2017-05-09T06:48:49.354Z,21.29
2017-05-09T06:49:49.601Z,21.27
2017-05-09T06:50:49.786Z,21.35
2017-05-09T06:51:49.474Z,21.3
2017-05-09T06:52:49.410Z,21.32
2017-05-09T06:53:49.363Z,21.35
2017-05-09T06:54:49.283Z,21.27
2017-05-09T06:55:49.220Z,21.37
2017-05-09T06:56:49.153Z,21.25
2017-05-09T06:57:49.092Z,21.25
2017-05-09T06:58:48.718Z,21.29
2017-05-09T06:59:49.335Z,21.3
2017-05-09T07:00:48.895Z,21.27
2017-05-09T07:01:48.840Z,21.25
2017-05-09T07:02:48.461Z,21.2
2017-05-09T07:03:48.717Z,21.27
2017-05-09T07:04:48.646Z,21.3
2017-05-09T07:05:48.269Z,21.3
2017-05-09T07:06:48.523Z,21.3
2017-05-09T07:07:48.458Z,21.39
2017-05-09T07:08:48.383Z,21.43
2017-05-09T07:09:48.016Z,21.43
2017-05-09T07:10:48.643Z,21.45
2017-05-09T07:11:47.886Z,21.48
2017-05-09T07:12:48.137Z,21.52
2017-05-09T07:13:47.760Z,21.51
2017-05-09T07:14:48.008Z,21.64
2017-05-09T07:15:47.943Z,21.54
2017-05-09T07:16:47.568Z,21.57
2017-05-09T07:17:48.186Z,21.6
2017-05-09T07:18:47.790Z,21.58
2017-05-09T07:19:47.686Z,21.64
2017-05-09T07:20:47.625Z,21.64
2017-05-09T07:21:47.967Z,21.64
2017-05-09T07:22:47.499Z,21.67
2017-05-09T07:23:47.433Z,21.75
2017-05-09T07:24:47.405Z,21.8
2017-05-09T07:25:47.319Z,21.79
2017-05-09T07:26:47.247Z,21.72
2017-05-09T07:27:47.178Z,21.72
2017-05-09T07:28:46.804Z,21.77
2017-05-09T07:29:47.050Z,21.83
2017-05-09T07:30:47.009Z,21.69
2017-05-09T07:31:46.924Z,21.79
2017-05-09T07:32:46.864Z,21.77
2017-05-09T07:33:46.798Z,21.79
2017-05-09T07:34:46.739Z,21.75
2017-05-09T07:35:46.673Z,21.8
2017-05-09T07:36:46.601Z,21.85
2017-05-09T07:37:46.235Z,21.89
2017-05-09T07:38:46.478Z,21.85
2017-05-09T07:39:46.109Z,21.91
2017-05-09T07:40:46.044Z,21.95
2017-05-09T07:41:46.324Z,21.92
2017-05-09T07:42:46.228Z,21.89
2017-05-09T07:43:46.160Z,21.95
2017-05-09T07:44:46.102Z,21.93
2017-05-09T07:45:46.034Z,22
2017-05-09T07:46:45.970Z,22.07
2017-05-09T07:47:45.905Z,22
2017-05-09T07:48:45.845Z,22
2017-05-09T07:49:45.779Z,22.06
2017-05-09T07:50:45.718Z,22
2017-05-09T07:51:45.656Z,22.08
2017-05-09T07:52:45.592Z,22.04
2017-05-09T07:53:45.217Z,22.04
2017-05-09T07:54:45.160Z,22.06
2017-05-09T07:55:45.091Z,22.08
2017-05-09T07:56:45.342Z,22.14
2017-05-09T07:57:45.292Z,22.08
2017-05-09T07:58:45.209Z,22.04
2017-05-09T07:59:45.150Z,22.02
2017-05-09T08:00:45.094Z,22.1
2017-05-09T08:01:45.026Z,22.14
2017-05-09T08:02:44.967Z,22.14
2017-05-09T08:03:44.588Z,22.07
2017-05-09T08:04:44.835Z,22.07
2017-05-09T08:05:44.773Z,21.98
2017-05-09T08:06:44.716Z,21.93
2017-05-09T08:07:44.647Z,21.93
2017-05-09T08:08:44.578Z,21.79
2017-05-09T08:09:44.515Z,21.75
2017-05-09T08:10:44.454Z,21.69
2017-05-09T08:11:44.390Z,21.76
2017-05-09T08:12:44.331Z,21.67
2017-05-09T08:13:44.263Z,21.7
2017-05-09T08:14:44.203Z,21.6
2017-05-09T08:15:44.135Z,21.61
2017-05-09T08:16:43.461Z,21.61
2017-05-09T08:17:44.395Z,21.48
2017-05-09T08:18:43.955Z,21.43
2017-05-09T08:19:43.889Z,21.46
2017-05-09T08:20:43.511Z,21.48
2017-05-09T08:21:43.758Z,21.46
2017-05-09T08:22:43.714Z,21.52
2017-05-09T08:23:43.635Z,21.42
2017-05-09T08:24:43.568Z,21.46
2017-05-09T08:25:43.501Z,21.33
2017-05-09T08:26:43.435Z,21.25
2017-05-09T08:27:43.376Z,21.3
2017-05-09T08:28:43.324Z,21.27
2017-05-09T08:29:43.246Z,21.3
2017-05-09T08:30:43.184Z,21.27
2017-05-09T08:31:42.875Z,21.24
2017-05-09T08:32:43.133Z,21.22
2017-05-09T08:33:42.686Z,21.22
2017-05-09T08:34:42.932Z,21.24
2017-05-09T08:35:42.648Z,21.25
2017-05-09T08:36:42.803Z,21.27
2017-05-09T08:37:42.738Z,21.22
2017-05-09T08:38:42.679Z,21.32
2017-05-09T08:39:42.298Z,21.3
2017-05-09T08:40:42.547Z,21.36
2017-05-09T08:41:42.169Z,21.27
2017-05-09T08:42:42.429Z,21.32
2017-05-09T08:43:42.346Z,21.25
2017-05-09T08:44:42.290Z,21.24
2017-05-09T08:45:42.231Z,21.25
2017-05-09T08:46:42.187Z,21.25
2017-05-09T08:47:42.096Z,21.29
2017-05-09T08:48:42.032Z,21.29
2017-05-09T08:49:41.967Z,21.33
2017-05-09T08:50:41.908Z,21.35
2017-05-09T08:51:41.885Z,21.3
2017-05-09T08:52:41.779Z,21.32
2017-05-09T08:53:41.724Z,21.37
2017-05-09T08:54:41.647Z,21.39
2017-05-09T08:55:41.586Z,21.46
2017-05-09T08:56:41.212Z,21.43
2017-05-09T08:57:40.835Z,21.4
2017-05-09T08:58:41.396Z,21.48
2017-05-09T08:59:41.026Z,21.46
2017-05-09T09:00:41.521Z,21.51
2017-05-09T09:01:40.900Z,21.54
2017-05-09T09:02:41.135Z,21.5
2017-05-09T09:03:41.073Z,21.48
2017-05-09T09:04:41.012Z,21.5
2017-05-09T09:05:41.041Z,21.52
2017-05-09T09:06:40.886Z,21.51
2017-05-09T09:07:40.817Z,21.51
2017-05-09T09:08:40.445Z,21.46
2017-05-09T09:09:40.386Z,21.48
2017-05-09T09:10:41.004Z,21.46
2017-05-09T09:11:40.258Z,21.45
2017-05-09T09:12:40.517Z,21.48
2017-05-09T09:13:40.809Z,21.45
2017-05-09T09:14:40.165Z,21.48
2017-05-09T09:15:40.054Z,21.43
2017-05-09T09:16:40.247Z,21.4
2017-05-09T09:17:39.874Z,21.4
2017-05-09T09:18:39.821Z,21.33
2017-05-09T09:19:40.067Z,21.32
2017-05-09T09:20:39.992Z,21.33
2017-05-09T09:21:39.971Z,21.29
2017-05-09T09:22:39.930Z,21.36
2017-05-09T09:23:39.803Z,21.37
2017-05-09T09:24:39.735Z,21.29
2017-05-09T09:25:39.799Z,21.35
2017-05-09T09:26:39.864Z,21.33
2017-05-09T09:27:39.821Z,21.33
2017-05-09T09:28:39.614Z,21.27
2017-05-09T09:29:39.105Z,21.32
2017-05-09T09:30:39.354Z,21.3
2017-05-09T09:31:39.288Z,21.33
2017-05-09T09:32:39.476Z,21.3
2017-05-09T09:33:39.194Z,21.36
2017-05-09T09:34:39.213Z,21.37
2017-05-09T09:35:38.722Z,21.36
2017-05-09T09:36:38.971Z,21.35
2017-05-09T09:37:38.936Z,21.33
2017-05-09T09:38:38.842Z,21.42
2017-05-09T09:39:38.778Z,21.4
2017-05-09T09:40:38.715Z,21.45
2017-05-09T09:41:38.343Z,21.43
2017-05-09T09:42:38.590Z,21.43
2017-05-09T09:43:38.211Z,21.4
2017-05-09T09:44:38.145Z,21.45
2017-05-09T09:45:38.764Z,21.42
2017-05-09T09:46:38.020Z,21.48
2017-05-09T09:47:38.264Z,21.46
2017-05-09T09:48:38.201Z,21.51
2017-05-09T09:49:38.140Z,21.5
2017-05-09T09:50:38.076Z,21.45
2017-05-09T09:51:38.012Z,21.57
2017-05-09T09:52:37.950Z,21.64
2017-05-09T09:53:37.885Z,21.52
2017-05-09T09:54:37.818Z,21.58
2017-05-09T09:55:37.749Z,21.61
2017-05-09T09:56:37.689Z,21.61
2017-05-09T09:57:37.627Z,21.6
2017-05-09T09:58:37.566Z,21.58
2017-05-09T09:59:37.188Z,21.62
2017-05-09T10:00:37.646Z,21.66
2017-05-09T10:01:36.757Z,21.61
2017-05-09T10:02:37.314Z,21.6
2017-05-09T10:03:37.242Z,21.69
2017-05-09T10:04:37.180Z,21.72
2017-05-09T10:05:36.959Z,21.73
2017-05-09T10:06:37.057Z,21.73
2017-05-09T10:07:36.986Z,21.69
2017-05-09T10:08:36.614Z,21.64
2017-05-09T10:09:36.874Z,21.77
2017-05-09T10:10:36.897Z,21.72
2017-05-09T10:11:36.743Z,21.7
2017-05-09T10:12:36.671Z,21.79
2017-05-09T10:13:36.605Z,21.73
2017-05-09T10:14:36.233Z,21.76
2017-05-09T10:15:36.477Z,21.79
2017-05-09T10:16:36.110Z,21.77
2017-05-09T10:17:36.353Z,21.77
2017-05-09T10:18:35.980Z,21.8
2017-05-09T10:19:36.607Z,21.77
2017-05-09T10:20:35.853Z,21.77
2017-05-09T10:21:35.794Z,21.8
2017-05-09T10:22:36.035Z,21.88
2017-05-09T10:23:35.973Z,21.83
2017-05-09T10:24:35.917Z,21.82
2017-05-09T10:25:35.846Z,21.93
2017-05-09T10:26:35.791Z,21.85
2017-05-09T10:27:35.721Z,21.79
2017-05-09T10:28:35.659Z,21.91
2017-05-09T10:29:35.597Z,21.8
2017-05-09T10:30:35.529Z,21.79
2017-05-09T10:31:35.478Z,21.77
2017-05-09T10:32:35.104Z,21.8
2017-05-09T10:33:35.347Z,21.91
2017-05-09T10:34:35.286Z,21.76
2017-05-09T10:35:35.614Z,21.8
2017-05-09T10:36:35.151Z,21.8
2017-05-09T10:37:35.087Z,21.76
2017-05-09T10:38:35.028Z,21.79
2017-05-09T10:39:34.969Z,21.85
2017-05-09T10:40:34.900Z,21.93
2017-05-09T10:41:34.832Z,21.85
2017-05-09T10:42:34.772Z,21.8
2017-05-09T10:43:34.704Z,21.79
2017-05-09T10:44:35.014Z,21.77
2017-05-09T10:45:34.580Z,21.83
2017-05-09T10:46:34.513Z,21.83
2017-05-09T10:47:34.451Z,21.8
2017-05-09T10:48:34.395Z,21.8
2017-05-09T10:49:34.325Z,21.77
2017-05-09T10:50:33.953Z,21.77
2017-05-09T10:51:33.899Z,21.79
2017-05-09T10:52:33.829Z,21.77
2017-05-09T10:53:34.072Z,21.83
2017-05-09T10:54:34.017Z,21.77
2017-05-09T10:55:33.954Z,21.77
2017-05-09T10:56:33.879Z,21.82
2017-05-09T10:57:33.831Z,21.75
2017-05-09T10:58:33.762Z,21.91
2017-05-09T10:59:34.065Z,21.8
2017-05-09T11:00:33.625Z,21.89
2017-05-09T11:01:33.556Z,21.85
2017-05-09T11:02:33.501Z,21.82
2017-05-09T11:03:33.437Z,21.95
2017-05-09T11:04:33.584Z,21.89
2017-05-09T11:05:33.305Z,21.96
2017-05-09T11:06:33.246Z,21.89
2017-05-09T11:07:33.182Z,21.98
2017-05-09T11:08:32.811Z,21.98
2017-05-09T11:09:33.053Z,21.88
2017-05-09T11:10:32.990Z,21.92
2017-05-09T11:11:32.930Z,21.88
2017-05-09T11:12:32.859Z,21.92
2017-05-09T11:13:32.802Z,21.89
2017-05-09T11:14:32.736Z,21.91
2017-05-09T11:15:32.673Z,21.89
2017-05-09T11:16:32.616Z,21.83
2017-05-09T11:17:32.553Z,21.76
2017-05-09T11:18:32.482Z,21.79
2017-05-09T11:19:32.124Z,21.76
2017-05-09T11:20:32.356Z,21.8
2017-05-09T11:21:32.295Z,21.89
2017-05-09T11:22:32.228Z,21.92
2017-05-09T11:23:32.168Z,21.83
2017-05-09T11:24:31.851Z,21.93
2017-05-09T11:25:32.035Z,21.91
2017-05-09T11:26:31.662Z,21.89
2017-05-09T11:27:31.605Z,21.96
2017-05-09T11:28:31.536Z,21.93
2017-05-09T11:29:31.797Z,21.92
2017-05-09T11:30:31.412Z,21.89
2017-05-09T11:31:32.029Z,21.89
2017-05-09T11:32:31.595Z,21.92
2017-05-09T11:33:31.532Z,21.93
2017-05-09T11:34:31.472Z,21.91
2017-05-09T11:35:31.402Z,21.89
2017-05-09T11:36:31.341Z,21.76
2017-05-09T11:37:30.972Z,21.77
2017-05-09T11:38:30.907Z,21.8
2017-05-09T11:39:31.149Z,21.75
2017-05-09T11:40:31.089Z,21.75
2017-05-09T11:41:31.021Z,21.8
2017-05-09T11:42:30.960Z,21.73
2017-05-09T11:43:30.930Z,21.75
2017-05-09T11:44:30.895Z,21.73
2017-05-09T11:45:30.765Z,21.75
2017-05-09T11:46:30.705Z,21.73
2017-05-09T11:47:30.641Z,21.83
2017-05-09T11:48:30.583Z,21.75
2017-05-09T11:49:30.527Z,21.73
2017-05-09T11:50:30.456Z,21.73
2017-05-09T11:51:30.081Z,21.72
2017-05-09T11:52:30.330Z,21.75
2017-05-09T11:53:30.261Z,21.8
2017-05-09T11:54:30.195Z,21.72
2017-05-09T11:55:30.133Z,21.75
2017-05-09T11:56:30.070Z,21.82
2017-05-09T11:57:30.010Z,21.69
2017-05-09T11:58:29.948Z,21.76
2017-05-09T11:59:29.880Z,21.72
2017-05-09T12:00:29.818Z,21.77
2017-05-09T12:01:29.821Z,21.77
2017-05-09T12:02:29.389Z,21.82
2017-05-09T12:03:29.623Z,21.82
2017-05-09T12:04:29.601Z,21.79
2017-05-09T12:05:29.593Z,21.77
2017-05-09T12:06:29.431Z,21.77
2017-05-09T12:07:29.390Z,21.67
2017-05-09T12:08:29.321Z,21.64
2017-05-09T12:09:29.245Z,21.77
2017-05-09T12:10:28.874Z,21.73
2017-05-09T12:11:28.808Z,21.66
2017-05-09T12:12:28.757Z,21.67
2017-05-09T12:13:28.996Z,21.62
2017-05-09T12:14:28.931Z,21.62
2017-05-09T12:15:28.868Z,21.58
2017-05-09T12:16:28.796Z,21.61
2017-05-09T12:17:28.753Z,21.6
2017-05-09T12:18:28.681Z,21.48
2017-05-09T12:19:28.319Z,21.48
2017-05-09T12:20:28.234Z,21.54
2017-05-09T12:21:28.476Z,21.48
2017-05-09T12:22:28.419Z,21.51
2017-05-09T12:23:28.351Z,21.43
2017-05-09T12:24:28.292Z,21.43
2017-05-09T12:25:28.219Z,21.39
2017-05-09T12:26:28.166Z,21.4
2017-05-09T12:27:28.108Z,21.39
2017-05-09T12:28:28.265Z,21.37
2017-05-09T12:29:27.973Z,21.36
2017-05-09T12:30:27.900Z,21.35
2017-05-09T12:31:27.847Z,21.35
2017-05-09T12:32:27.776Z,21.3
2017-05-09T12:33:27.732Z,21.37
2017-05-09T12:34:27.650Z,21.32
2017-05-09T12:35:27.978Z,21.35
2017-05-09T12:36:27.514Z,21.32
2017-05-09T12:37:27.846Z,21.27
2017-05-09T12:38:27.390Z,21.29
2017-05-09T12:39:27.327Z,21.3
2017-05-09T12:40:27.125Z,21.29
2017-05-09T12:41:27.196Z,21.3
2017-05-09T12:42:27.226Z,21.29
2017-05-09T12:43:27.068Z,21.29
2017-05-09T12:44:27.019Z,21.3
2017-05-09T12:45:27.190Z,21.25
2017-05-09T12:46:26.674Z,21.37
2017-05-09T12:47:27.026Z,21.32
2017-05-09T12:48:26.748Z,21.37
2017-05-09T12:49:26.132Z,21.45
2017-05-09T12:50:26.572Z,21.42
2017-05-09T12:51:26.319Z,21.4
2017-05-09T12:52:26.496Z,21.4
2017-05-09T12:53:26.427Z,21.46
2017-05-09T12:54:26.381Z,21.42
2017-05-09T12:55:26.436Z,21.39
2017-05-09T12:56:26.234Z,21.46